Time;durP1;ratioP1;P1;durP2;ratioP2;P2;SDS_P1;SDS_P2;PMS_P1;PMS_P2;Temp;Humidity;BMP_temperature;BMP_pressure;BME280_temperature;BME280_humidity;BME280_pressure;Samples;Min_cycle;Max_cycle;Signal;HPM_P1;HPM_P2
2023/05/31 00:03:47;;;;;;;6.18;4.32;;;;;;;12.54;100.00;102188.06;6213067;23;20088;-84
2023/05/31 00:06:13;;;;;;;5.82;4.55;;;;;;;12.48;100.00;102194.00;6188838;23;20001;-85
2023/05/31 00:08:39;;;;;;;7.32;5.10;;;;;;;12.43;100.00;102194.28;6188246;23;20044;-84
2023/05/31 00:11:06;;;;;;;8.68;5.72;;;;;;;12.34;100.00;102166.53;6138839;23;20001;-85
2023/05/31 00:16:10;;;;;;;6.22;5.63;;;;;;;12.31;100.00;102174.00;6181737;23;20020;-84
2023/05/31 00:18:35;;;;;;;5.82;5.18;;;;;;;12.25;100.00;102179.03;6162620;23;20044;-85
2023/05/31 00:21:01;;;;;;;7.70;5.82;;;;;;;12.28;100.00;102178.78;6160223;23;20040;-84
2023/05/31 00:23:27;;;;;;;9.50;6.78;;;;;;;12.28;100.00;102187.94;6160096;23;19997;-85
2023/05/31 00:25:52;;;;;;;6.30;5.70;;;;;;;12.35;100.00;102198.50;6134553;23;20044;-85
2023/05/31 00:28:18;;;;;;;8.65;5.78;;;;;;;12.30;100.00;102194.22;6183399;23;20024;-85
2023/05/31 00:30:43;;;;;;;8.82;5.35;;;;;;;12.30;100.00;102198.81;6131675;23;20033;-85
2023/05/31 00:33:09;;;;;;;8.70;5.60;;;;;;;12.26;100.00;102187.13;6108817;23;20152;-84
2023/05/31 00:35:34;;;;;;;6.82;5.55;;;;;;;12.13;100.00;102184.31;6180526;23;20019;-85
2023/05/31 00:38:07;;;;;;;5.53;5.00;;;;;;;12.22;100.00;102195.69;6129034;23;20009;-84
2023/05/31 00:40:33;;;;;;;7.10;5.45;;;;;;;12.17;100.00;102186.84;6177516;23;20005;-85
2023/05/31 00:42:59;;;;;;;5.75;5.15;;;;;;;12.15;100.00;102189.72;6178883;23;20012;-85
2023/05/31 00:45:25;;;;;;;6.18;5.57;;;;;;;12.08;100.00;102177.34;6153725;23;20009;-85
2023/05/31 00:47:50;;;;;;;14.38;5.38;;;;;;;12.05;100.00;102178.44;6180784;23;20009;-84
2023/05/31 00:50:16;;;;;;;6.32;5.63;;;;;;;12.06;100.00;102193.91;6130747;23;20440;-85
2023/05/31 00:52:44;;;;;;;7.63;5.97;;;;;;;12.07;100.00;102189.31;6160071;23;20008;-84
2023/05/31 00:55:10;;;;;;;9.20;6.18;;;;;;;11.77;100.00;102155.47;6186491;23;19994;-85
2023/05/31 00:57:36;;;;;;;6.97;5.88;;;;;;;12.04;100.00;102195.88;6137469;23;20017;-84
2023/05/31 01:00:04;;;;;;;10.32;5.90;;;;;;;11.84;100.00;102180.66;6137067;23;19989;-85
2023/05/31 01:02:32;;;;;;;8.00;5.45;;;;;;;11.87;100.00;102187.78;6162614;23;20045;-85
2023/05/31 01:04:58;;;;;;;9.88;6.25;;;;;;;11.94;100.00;102205.69;6186158;23;20008;-84
2023/05/31 01:07:24;;;;;;;6.90;5.45;;;;;;;11.98;100.00;102204.50;6112123;23;20028;-85
2023/05/31 01:09:50;;;;;;;7.93;6.00;;;;;;;11.80;100.00;102186.44;6185757;23;20009;-84
2023/05/31 01:12:21;;;;;;;6.35;5.70;;;;;;;11.90;100.00;102204.97;6186081;23;20044;-85
2023/05/31 01:15:02;;;;;;;8.75;6.20;;;;;;;11.81;100.00;102202.81;6185396;23;20008;-85
2023/05/31 01:18:09;;;;;;;6.95;6.25;;;;;;;11.86;100.00;102206.13;6161249;23;20012;-84
2023/05/31 01:20:37;;;;;;;6.90;5.65;;;;;;;11.84;100.00;102199.88;6185951;23;19989;-85
2023/05/31 01:23:31;;;;;;;7.53;6.28;;;;;;;11.79;100.00;102204.75;6186281;23;19996;-84
2023/05/31 01:26:28;;;;;;;11.82;6.60;;;;;;;11.73;100.00;102210.63;6184877;23;20013;-84
2023/05/31 01:28:59;;;;;;;6.90;6.25;;;;;;;11.68;100.00;102207.28;6160777;23;20008;-84
2023/05/31 01:31:27;;;;;;;7.90;6.10;;;;;;;11.63;100.00;102199.34;6185005;23;20069;-84
2023/05/31 01:33:53;;;;;;;8.10;5.95;;;;;;;11.63;100.00;102190.25;6161988;23;20036;-84
2023/05/31 01:36:18;;;;;;;8.32;6.43;;;;;;;11.59;100.00;102192.25;6135048;23;20012;-84
2023/05/31 01:38:44;;;;;;;7.20;6.43;;;;;;;11.59;100.00;102195.00;6111399;23;20065;-84
2023/05/31 01:41:15;;;;;;;8.75;6.97;;;;;;;11.51;100.00;102187.28;6185362;23;20023;-84
2023/05/31 01:43:43;;;;;;;10.52;7.22;;;;;;;11.59;100.00;102195.91;6161190;23;19997;-83
2023/05/31 01:46:10;;;;;;;12.38;7.38;;;;;;;11.47;100.00;102171.09;6184813;23;20416;-84
2023/05/31 01:48:37;;;;;;;9.13;7.55;;;;;;;11.44;100.00;102183.13;6184942;23;19997;-84
2023/05/31 01:51:05;;;;;;;11.35;7.10;;;;;;;11.50;100.00;102193.72;6210907;23;20016;-83
2023/05/31 01:53:31;;;;;;;9.32;7.53;;;;;;;11.50;100.00;102198.34;6154858;23;20088;-83
2023/05/31 01:55:58;;;;;;;9.20;7.18;;;;;;;11.46;100.00;102181.19;6204314;23;20004;-83
2023/05/31 01:58:27;;;;;;;9.15;6.30;;;;;;;11.41;100.00;102158.63;6154357;23;20009;-83
2023/05/31 02:00:53;;;;;;;14.32;7.75;;;;;;;11.34;100.00;102165.47;6179262;23;20040;-83
2023/05/31 02:03:18;;;;;;;9.38;6.97;;;;;;;11.47;100.00;102182.06;6154916;23;20004;-83
2023/05/31 02:05:58;;;;;;;9.27;7.75;;;;;;;11.43;100.00;102180.47;6154639;23;20013;-83
2023/05/31 02:08:25;;;;;;;9.00;7.60;;;;;;;11.53;100.00;102182.56;6205329;23;20079;-83
2023/05/31 02:10:51;;;;;;;9.45;6.82;;;;;;;11.49;100.00;102188.34;6179945;23;20005;-82
2023/05/31 02:13:18;;;;;;;9.88;7.20;;;;;;;11.43;100.00;102183.22;6157744;23;20058;-83
2023/05/31 02:15:43;;;;;;;8.35;7.43;;;;;;;11.40;100.00;102182.44;6155878;23;20017;-82
2023/05/31 02:18:09;;;;;;;11.60;8.23;;;;;;;11.30;100.00;102167.53;6157423;23;20020;-83
2023/05/31 02:20:34;;;;;;;7.85;7.05;;;;;;;11.35;100.00;102187.31;6136497;23;20069;-84
2023/05/31 02:23:00;;;;;;;12.60;7.53;;;;;;;11.28;100.00;102174.97;6136994;23;20013;-83
2023/05/31 02:25:25;;;;;;;11.88;7.30;;;;;;;11.29;100.00;102173.09;6161609;23;19997;-83
2023/05/31 02:27:51;;;;;;;11.07;7.18;;;;;;;11.28;100.00;102179.56;6187836;23;19997;-85
2023/05/31 02:30:17;;;;;;;10.88;7.28;;;;;;;11.19;100.00;102181.88;6139414;23;20032;-85
2023/05/31 02:32:42;;;;;;;10.35;7.32;;;;;;;11.04;100.00;102153.53;6187000;23;20041;-84
2023/05/31 02:35:10;;;;;;;9.07;7.20;;;;;;;11.11;100.00;102175.97;6138246;23;20020;-84
2023/05/31 02:37:37;;;;;;;10.93;7.22;;;;;;;11.12;100.00;102182.38;6186600;23;20074;-84
2023/05/31 02:40:08;;;;;;;8.98;7.20;;;;;;;11.16;100.00;102187.53;6162707;23;19997;-84
2023/05/31 02:42:36;;;;;;;10.77;7.72;;;;;;;11.10;100.00;102176.97;6188594;23;20013;-83
2023/05/31 02:45:02;;;;;;;12.02;7.40;;;;;;;11.16;100.00;102183.94;6187299;23;20059;-83
2023/05/31 02:47:27;;;;;;;9.40;8.05;;;;;;;10.97;100.00;102162.22;6137382;23;20028;-84
2023/05/31 02:49:53;;;;;;;11.60;8.05;;;;;;;11.09;100.00;102177.06;6136836;23;20032;-84
2023/05/31 02:52:18;;;;;;;11.20;7.68;;;;;;;10.95;100.00;102159.59;6185961;23;20015;-84
2023/05/31 02:54:44;;;;;;;10.55;7.97;;;;;;;11.03;100.00;102170.97;6161532;23;20075;-83
2023/05/31 02:57:09;;;;;;;12.30;8.07;;;;;;;11.07;100.00;102177.16;6112226;23;19989;-83
2023/05/31 02:59:35;;;;;;;10.60;8.45;;;;;;;10.92;100.00;102159.78;6136056;23;20008;-82
2023/05/31 03:02:00;;;;;;;13.73;8.80;;;;;;;11.03;100.00;102175.56;6185575;23;20005;-82
2023/05/31 03:04:26;;;;;;;14.05;7.95;;;;;;;11.00;100.00;102175.72;6163497;23;20021;-82
2023/05/31 03:06:52;;;;;;;14.65;8.88;;;;;;;10.96;100.00;102166.81;6161509;23;20005;-83
2023/05/31 03:09:17;;;;;;;12.52;8.88;;;;;;;11.02;100.00;102168.31;6162606;23;19997;-82
2023/05/31 03:11:46;;;;;;;10.85;8.30;;;;;;;10.86;100.00;102162.88;6113861;23;20006;-83
2023/05/31 03:14:12;;;;;;;10.45;8.30;;;;;;;10.97;100.00;102186.88;6138399;23;20036;-82
2023/05/31 03:16:37;;;;;;;10.98;8.68;;;;;;;10.91;100.00;102171.69;6162543;23;20021;-81
2023/05/31 03:19:03;;;;;;;13.85;8.70;;;;;;;10.87;100.00;102182.91;6163165;23;20013;-83
2023/05/31 03:21:30;;;;;;;12.07;9.25;;;;;;;10.95;100.00;102180.63;6164155;23;20060;-82
2023/05/31 03:23:55;;;;;;;11.95;9.70;;;;;;;10.91;100.00;102174.44;6162269;23;20028;-82
2023/05/31 03:26:21;;;;;;;12.15;8.57;;;;;;;10.94;100.00;102179.75;6185857;23;19997;-83
2023/05/31 03:28:46;;;;;;;10.88;8.25;;;;;;;10.94;100.00;102187.97;6157951;23;20005;-83
2023/05/31 03:31:11;;;;;;;12.45;8.55;;;;;;;10.89;100.00;102187.34;6181910;23;20009;-82
2023/05/31 03:33:37;;;;;;;15.50;9.07;;;;;;;10.90;100.00;102182.75;6181615;23;20013;-83
2023/05/31 03:36:03;;;;;;;11.57;8.25;;;;;;;10.78;100.00;102166.06;6132434;23;20014;-83
2023/05/31 03:38:29;;;;;;;15.15;9.57;;;;;;;10.82;100.00;102181.34;6131802;23;20036;-83
2023/05/31 03:40:54;;;;;;;11.90;8.00;;;;;;;10.92;100.00;102181.69;6156783;23;20072;-82
2023/05/31 03:43:20;;;;;;;12.82;8.68;;;;;;;10.92;100.00;102178.94;6183353;23;20012;-82
2023/05/31 03:45:45;;;;;;;10.60;8.80;;;;;;;10.84;100.00;102171.19;6186299;23;20017;-83
2023/05/31 03:48:11;;;;;;;12.00;8.57;;;;;;;10.88;100.00;102171.00;6184919;23;20024;-83
2023/05/31 03:50:40;;;;;;;12.32;9.40;;;;;;;10.90;100.00;102169.91;6159082;23;20016;-83
2023/05/31 03:53:06;;;;;;;10.90;7.82;;;;;;;10.77;100.00;102158.81;6137208;23;20048;-84
2023/05/31 03:55:32;;;;;;;12.77;8.57;;;;;;;10.86;100.00;102165.59;6138240;23;20009;-84
2023/05/31 03:57:58;;;;;;;14.07;9.30;;;;;;;10.74;100.00;102167.22;6183793;23;20043;-83
2023/05/31 04:00:24;;;;;;;13.35;8.55;;;;;;;10.75;100.00;102159.88;6160717;23;20024;-82
2023/05/31 04:02:49;;;;;;;12.80;9.15;;;;;;;10.85;100.00;102166.56;6157405;23;20001;-80
2023/05/31 04:05:15;;;;;;;11.88;8.85;;;;;;;10.75;100.00;102152.53;6132602;23;20000;-83
2023/05/31 04:07:41;;;;;;;14.18;9.25;;;;;;;10.93;100.00;102171.59;6185196;23;20053;-81
2023/05/31 04:10:07;;;;;;;13.38;8.82;;;;;;;10.98;100.00;102180.44;6134919;23;20044;-82
2023/05/31 04:12:32;;;;;;;14.40;10.05;;;;;;;10.92;100.00;102168.00;6182070;23;20024;-82
2023/05/31 04:14:57;;;;;;;14.43;10.05;;;;;;;11.00;100.00;102183.97;6182257;23;20029;-81
2023/05/31 04:17:23;;;;;;;13.95;8.98;;;;;;;11.00;100.00;102178.47;6156898;23;20328;-84
2023/05/31 04:19:48;;;;;;;15.15;10.20;;;;;;;10.98;100.00;102161.25;6182595;23;20013;-80
2023/05/31 04:22:14;;;;;;;15.55;10.00;;;;;;;10.94;100.00;102155.06;6131221;23;20067;-85
2023/05/31 04:24:39;;;;;;;17.50;10.05;;;;;;;11.11;100.00;102170.50;6152075;23;20016;-83
2023/05/31 04:27:06;;;;;;;16.80;10.02;;;;;;;11.15;100.00;102169.34;6131983;23;20016;-81
2023/05/31 04:29:32;;;;;;;20.15;10.50;;;;;;;11.00;100.00;102138.28;6173702;23;20024;-78
2023/05/31 04:31:58;;;;;;;15.60;10.13;;;;;;;11.20;100.00;102166.34;6172419;23;20020;-78
2023/05/31 04:34:23;;;;;;;16.55;9.65;;;;;;;11.33;100.00;102182.91;6124700;23;20001;-80
2023/05/31 04:36:49;;;;;;;17.77;9.55;;;;;;;11.26;100.00;102162.31;6148457;23;20016;-81
2023/05/31 04:39:15;;;;;;;19.38;10.80;;;;;;;11.43;100.00;102184.13;6174132;23;20429;-80
2023/05/31 04:41:41;;;;;;;15.02;9.90;;;;;;;11.42;100.00;102178.72;6148945;23;20043;-82
2023/05/31 04:44:08;;;;;;;14.95;9.40;;;;;;;11.42;100.00;102174.13;6171535;23;20005;-80
2023/05/31 04:46:33;;;;;;;19.30;10.80;;;;;;;11.45;100.00;102176.66;6149405;23;20174;-83
2023/05/31 04:49:03;;;;;;;18.50;10.35;;;;;;;11.56;100.00;102182.38;6177275;23;20009;-83
2023/05/31 04:51:28;;;;;;;17.25;11.25;;;;;;;11.54;100.00;102175.22;6201569;23;20009;-78
2023/05/31 04:53:54;;;;;;;19.83;10.88;;;;;;;11.55;100.00;102163.28;6197829;23;20019;-80
2023/05/31 04:56:21;;;;;;;17.10;10.30;;;;;;;11.53;100.00;102155.13;6123419;23;20013;-79
2023/05/31 04:58:47;;;;;;;17.67;10.40;;;;;;;11.67;100.00;102167.09;6119928;23;20009;-80
2023/05/31 05:01:14;;;;;;;16.08;10.30;;;;;;;11.74;100.00;102174.88;6146311;23;20013;-79
2023/05/31 05:03:40;;;;;;;16.00;10.90;;;;;;;11.71;100.00;102174.19;6123106;23;20008;-78
2023/05/31 05:06:13;;;;;;;14.50;10.65;;;;;;;11.85;100.00;102178.78;6148745;23;20068;-78
2023/05/31 05:08:40;;;;;;;18.23;10.63;;;;;;;11.91;100.00;102186.63;6148284;23;20091;-78
2023/05/31 05:11:06;;;;;;;17.75;10.40;;;;;;;11.98;100.00;102178.94;6148312;23;20020;-78
2023/05/31 05:13:31;;;;;;;18.42;11.32;;;;;;;12.00;100.00;102183.31;6146993;23;20012;-78
2023/05/31 05:15:56;;;;;;;16.13;9.73;;;;;;;12.00;100.00;102166.84;6156168;23;20773;-80
2023/05/31 05:18:22;;;;;;;16.73;11.15;;;;;;;12.29;100.00;102189.69;6095659;23;20006;-78
2023/05/31 05:20:47;;;;;;;16.13;10.18;;;;;;;12.23;100.00;102175.47;6094425;23;20065;-79
2023/05/31 05:23:13;;;;;;;20.92;10.50;;;;;;;12.40;100.00;102182.63;6119390;23;20020;-78
2023/05/31 05:25:39;;;;;;;15.35;10.45;;;;;;;12.50;100.00;102192.88;6094189;23;20036;-79
2023/05/31 05:28:05;;;;;;;18.05;9.85;;;;;;;12.85;100.00;102186.03;6142911;23;20023;-78
2023/05/31 05:30:30;;;;;;;16.15;10.02;;;;;;;12.97;100.00;102178.81;6141410;23;20041;-79
2023/05/31 05:32:56;;;;;;;14.52;9.32;;;;;;;13.42;100.00;102187.69;6141233;23;20017;-79
2023/05/31 05:35:21;;;;;;;14.13;9.30;;;;;;;13.42;100.00;102202.31;6143465;23;20044;-80
2023/05/31 05:37:47;;;;;;;16.52;10.23;;;;;;;13.88;100.00;102198.16;6117061;23;20009;-82
2023/05/31 05:40:12;;;;;;;12.88;9.10;;;;;;;14.24;100.00;102195.63;6141489;23;20029;-80
2023/05/31 05:42:38;;;;;;;13.70;9.23;;;;;;;14.47;100.00;102196.69;6141728;23;20458;-81
2023/05/31 05:45:06;;;;;;;18.83;10.25;;;;;;;14.49;100.00;102198.34;6119557;23;20013;-80
2023/05/31 05:47:33;;;;;;;12.70;8.77;;;;;;;14.57;100.00;102195.00;6120948;23;20017;-81
2023/05/31 05:49:58;;;;;;;18.80;9.27;;;;;;;14.81;100.00;102203.34;6167795;23;20008;-80
2023/05/31 05:52:24;;;;;;;14.35;9.88;;;;;;;15.33;100.00;102206.75;6095838;23;20018;-80
2023/05/31 05:54:49;;;;;;;14.20;8.98;;;;;;;15.19;100.00;102213.31;6097340;23;20010;-80
2023/05/31 05:57:15;;;;;;;19.05;8.77;;;;;;;15.04;100.00;102186.94;6147550;23;20009;-81
2023/05/31 05:59:44;;;;;;;14.27;8.80;;;;;;;15.68;100.00;102189.28;6100011;23;20048;-80
2023/05/31 06:02:11;;;;;;;32.35;8.60;;;;;;;15.90;100.00;102204.16;6125490;23;20017;-81
2023/05/31 06:04:37;;;;;;;14.98;9.25;;;;;;;16.10;100.00;102205.31;6172859;23;20009;-81
2023/05/31 06:07:02;;;;;;;19.25;9.05;;;;;;;16.69;100.00;102194.00;6144859;23;20024;-81
2023/05/31 06:09:28;;;;;;;10.45;7.75;;;;;;;16.80;100.00;102190.31;6117093;23;20096;-79
2023/05/31 06:11:53;;;;;;;14.02;8.60;;;;;;;16.78;100.00;102194.22;6116158;23;20088;-83
2023/05/31 06:14:19;;;;;;;14.80;8.30;;;;;;;16.88;100.00;102195.22;6119959;23;20017;-81
2023/05/31 06:16:45;;;;;;;10.57;7.97;;;;;;;17.06;100.00;102181.72;6168320;23;20100;-82
2023/05/31 06:19:10;;;;;;;13.73;7.38;;;;;;;17.20;100.00;102197.13;6201382;23;20044;-83
2023/05/31 06:21:35;;;;;;;20.52;8.65;;;;;;;17.25;100.00;102198.50;6126576;23;20002;-85
2023/05/31 06:24:04;;;;;;;12.70;7.90;;;;;;;17.51;100.00;102200.91;6119299;23;20025;-86
2023/05/31 06:26:30;;;;;;;17.02;8.32;;;;;;;17.44;100.00;102208.84;6130193;23;20065;-85
2023/05/31 06:29:27;;;;;;;13.82;7.57;;;;;;;17.65;100.00;102188.59;6006784;23;20052;31
2023/05/31 06:31:53;;;;;;;16.63;8.13;;;;;;;18.64;100.00;102216.69;6125174;23;20005;-85
2023/05/31 06:34:18;;;;;;;21.90;8.70;;;;;;;17.68;100.00;102196.66;6064532;23;20033;-82
2023/05/31 06:41:54;;;;;;;36.75;26.67;;;;;;;18.53;100.00;102219.63;6084088;23;20009;-84
2023/05/31 06:49:43;;;;;;;12.13;7.40;;;;;;;19.93;97.35;102217.59;6092279;23;20088;-83
2023/05/31 06:57:19;;;;;;;11.30;7.50;;;;;;;19.35;96.87;102201.81;6150562;23;20089;-86
2023/05/31 06:59:44;;;;;;;14.90;7.60;;;;;;;19.37;97.68;102207.25;6123915;23;19998;-88
2023/05/31 07:02:10;;;;;;;13.35;7.30;;;;;;;19.46;96.44;102220.22;6056367;23;20019;-86
2023/05/31 07:04:35;;;;;;;10.35;6.75;;;;;;;19.99;94.36;102214.22;6104611;23;20014;-88
2023/05/31 07:07:05;;;;;;;9.68;7.78;;;;;;;20.15;88.67;102223.81;6122264;23;20014;-84
2023/05/31 07:09:30;;;;;;;13.38;7.63;;;;;;;19.86;93.93;102219.22;6044512;23;20014;-85
2023/05/31 07:11:56;;;;;;;10.65;7.65;;;;;;;20.08;89.86;102225.47;6112901;23;20016;-84
2023/05/31 07:14:22;;;;;;;14.40;7.82;;;;;;;19.87;96.11;102207.06;6063523;23;20410;-84
2023/05/31 07:16:48;;;;;;;13.77;7.90;;;;;;;20.13;90.18;102210.06;6136498;23;20037;-84
2023/05/31 07:19:13;;;;;;;9.52;7.40;;;;;;;20.69;85.19;102215.72;6041106;23;20354;-84
2023/05/31 07:21:39;;;;;;;15.63;7.15;;;;;;;20.67;86.19;102210.31;6090594;23;20774;-84
2023/05/31 07:24:05;;;;;;;12.35;7.90;;;;;;;21.46;78.96;102210.63;6090128;23;20509;-84
2023/05/31 07:26:30;;;;;;;12.27;7.68;;;;;;;21.47;81.22;102206.81;6088170;23;20101;-84
2023/05/31 07:28:56;;;;;;;15.82;7.80;;;;;;;20.66;80.87;102203.00;6086043;23;20342;-84
2023/05/31 07:31:22;;;;;;;12.30;7.53;;;;;;;20.78;82.94;102206.44;6038480;23;20017;-84
2023/05/31 07:33:48;;;;;;;13.10;7.35;;;;;;;20.57;86.75;102212.22;6061089;23;20449;-84
2023/05/31 07:36:13;;;;;;;12.77;7.57;;;;;;;20.98;84.39;102206.31;6037008;23;20010;-84
2023/05/31 07:38:39;;;;;;;13.15;8.18;;;;;;;21.45;81.56;102200.53;6132989;23;20500;-85
2023/05/31 07:41:04;;;;;;;12.48;7.35;;;;;;;21.56;77.63;102202.22;6087037;23;20017;-84
2023/05/31 07:43:30;;;;;;;10.70;6.70;;;;;;;21.43;78.26;102197.91;6088731;23;20109;-85
2023/05/31 07:45:56;;;;;;;11.48;7.13;;;;;;;21.59;77.80;102197.19;6112220;23;20009;-83
2023/05/31 07:48:23;;;;;;;11.75;6.70;;;;;;;22.10;74.59;102197.38;6088394;23;20767;-83
2023/05/31 07:50:49;;;;;;;12.77;7.72;;;;;;;21.64;76.23;102186.47;6162390;23;20018;-84
2023/05/31 07:53:14;;;;;;;9.27;6.40;;;;;;;21.67;76.27;102182.44;6113781;23;20448;-83
2023/05/31 07:55:40;;;;;;;12.13;7.22;;;;;;;22.19;72.25;102184.38;6090901;23;20112;-83
2023/05/31 07:58:05;;;;;;;15.07;7.32;;;;;;;22.37;73.42;102182.41;6091442;23;20017;-83
2023/05/31 08:00:32;;;;;;;14.07;6.90;;;;;;;22.02;73.17;102184.28;6140213;23;20017;-84
2023/05/31 08:02:58;;;;;;;15.32;7.28;;;;;;;22.16;73.79;102190.28;6142049;23;20009;-85
2023/05/31 08:05:23;;;;;;;11.27;6.57;;;;;;;23.36;67.98;102187.44;6091141;23;20016;-84
2023/05/31 08:07:49;;;;;;;13.93;7.00;;;;;;;22.70;68.67;102184.47;6065159;23;20040;-84
2023/05/31 08:10:16;;;;;;;12.38;7.75;;;;;;;22.40;69.75;102181.22;6138706;23;20009;-83
2023/05/31 08:12:41;;;;;;;12.43;7.15;;;;;;;22.56;70.33;102183.19;6115106;23;20021;-84
2023/05/31 08:15:08;;;;;;;14.23;7.60;;;;;;;23.37;66.57;102194.78;6163147;23;20426;-83
2023/05/31 08:17:33;;;;;;;14.38;7.32;;;;;;;22.86;64.57;102180.88;6137642;23;20519;-83
2023/05/31 08:19:58;;;;;;;16.17;6.55;;;;;;;23.49;63.84;102183.06;6087978;23;20013;-85
2023/05/31 08:22:27;;;;;;;10.10;6.60;;;;;;;22.94;67.46;102158.53;6093119;23;20029;-85
2023/05/31 08:24:52;;;;;;;13.43;6.60;;;;;;;22.89;67.78;102170.22;6097841;23;20021;-85
2023/05/31 08:27:18;;;;;;;11.65;6.53;;;;;;;24.18;63.72;102179.00;6099674;23;20022;-85
2023/05/31 08:29:44;;;;;;;12.27;6.25;;;;;;;23.67;65.19;102162.44;6123172;23;20013;-85
2023/05/31 08:32:13;;;;;;;12.52;7.45;;;;;;;24.17;61.30;102177.22;6100474;23;20017;-84
2023/05/31 08:34:39;;;;;;;10.73;6.63;;;;;;;23.66;62.06;102166.28;6090303;23;20021;-85
2023/05/31 08:37:04;;;;;;;12.13;6.57;;;;;;;23.14;63.74;102170.31;6097172;23;20000;-84
2023/05/31 08:39:30;;;;;;;12.23;6.45;;;;;;;23.95;61.06;102148.97;6122910;23;20033;-84
2023/05/31 08:42:02;;;;;;;13.45;6.15;;;;;;;23.83;62.67;102170.84;6091894;23;20593;-84
2023/05/31 08:44:29;;;;;;;14.82;6.13;;;;;;;24.53;58.37;102162.75;6115105;23;20084;-84
2023/05/31 08:46:58;;;;;;;13.98;5.55;;;;;;;24.13;56.82;102173.06;6098563;23;19994;-83
2023/05/31 08:49:24;;;;;;;10.68;5.88;;;;;;;24.32;58.65;102172.66;6117256;23;20029;-84
2023/05/31 08:51:50;;;;;;;7.43;5.47;;;;;;;24.15;60.19;102168.16;6113182;23;20009;-84
2023/05/31 08:54:16;;;;;;;10.43;5.90;;;;;;;24.34;57.24;102176.13;6092710;23;20137;-84
2023/05/31 08:56:46;;;;;;;11.25;5.85;;;;;;;24.70;56.59;102170.06;6148416;23;20022;-84
2023/05/31 08:59:11;;;;;;;11.02;5.35;;;;;;;24.32;56.01;102164.25;6122696;23;20009;-84
2023/05/31 09:01:41;;;;;;;11.13;5.40;;;;;;;24.47;57.55;102163.50;6119026;23;20014;-85
2023/05/31 09:04:07;;;;;;;11.25;5.35;;;;;;;24.56;56.39;102156.81;6171902;23;20082;-86
2023/05/31 09:06:36;;;;;;;8.48;4.68;;;;;;;25.23;51.94;102158.19;6099280;23;20013;-83
2023/05/31 09:09:02;;;;;;;15.93;4.55;;;;;;;24.46;54.44;102151.41;6149890;23;20386;-85
2023/05/31 09:11:28;;;;;;;15.70;5.25;;;;;;;24.43;56.50;102151.78;6120274;23;20018;-84
2023/05/31 09:13:54;;;;;;;12.80;5.22;;;;;;;24.73;55.17;102146.44;6165898;23;20053;-85
2023/05/31 09:16:22;;;;;;;8.55;5.50;;;;;;;24.43;54.67;102148.09;6144483;23;20020;-85
2023/05/31 09:18:58;;;;;;;10.65;5.88;;;;;;;24.72;56.86;102145.53;6148915;23;20005;-85
2023/05/31 09:21:24;;;;;;;9.88;5.20;;;;;;;24.89;56.67;102134.22;6137730;23;20055;-84
2023/05/31 09:23:54;;;;;;;8.07;5.20;;;;;;;25.38;53.60;102142.28;6090015;23;20013;-85
2023/05/31 09:26:20;;;;;;;10.35;4.80;;;;;;;25.27;53.97;102139.97;6142513;23;20017;-85
2023/05/31 09:28:53;;;;;;;9.80;4.60;;;;;;;25.50;53.08;102137.13;6113753;23;20029;-85
2023/05/31 09:31:19;;;;;;;12.35;4.88;;;;;;;25.24;53.02;102129.09;6161820;23;20326;-85
2023/05/31 09:33:47;;;;;;;9.82;3.92;;;;;;;25.26;53.37;102133.44;6135506;23;20009;-85
2023/05/31 09:36:14;;;;;;;9.13;3.90;;;;;;;25.94;51.54;102130.72;6110343;23;20009;-85
2023/05/31 09:38:40;;;;;;;11.10;4.32;;;;;;;26.04;49.69;102130.47;6087336;23;20013;-85
2023/05/31 09:41:17;;;;;;;8.57;3.65;;;;;;;26.58;51.02;102130.13;6135521;23;20041;-84
2023/05/31 09:43:44;;;;;;;9.27;3.60;;;;;;;26.66;47.92;102125.50;6110762;23;20516;-85
2023/05/31 09:46:13;;;;;;;5.85;4.22;;;;;;;26.03;49.11;102121.16;6135263;23;20433;-85
2023/05/31 09:48:38;;;;;;;6.50;3.63;;;;;;;25.88;49.77;102111.00;6110365;23;20012;-85
2023/05/31 09:51:08;;;;;;;12.18;3.85;;;;;;;25.79;50.20;102113.88;6110644;23;20104;-85
2023/05/31 09:53:41;;;;;;;8.52;3.53;;;;;;;25.71;50.81;102105.56;6111417;23;20303;-85
2023/05/31 09:56:11;;;;;;;8.85;3.78;;;;;;;25.93;51.30;102111.28;6109040;23;20014;-85
2023/05/31 09:58:36;;;;;;;7.65;3.58;;;;;;;26.26;50.21;102097.72;6134374;23;20338;-85
2023/05/31 10:01:03;;;;;;;6.65;3.10;;;;;;;26.41;48.19;102101.38;6110994;23;20096;-85
2023/05/31 10:03:31;;;;;;;8.45;2.83;;;;;;;26.73;45.59;102110.47;6111428;23;20396;-85
2023/05/31 10:05:56;;;;;;;8.98;2.75;;;;;;;26.60;46.99;102107.47;6136031;23;20005;-85
2023/05/31 10:08:23;;;;;;;8.73;2.67;;;;;;;26.12;45.52;102082.66;6087350;23;20012;-85
2023/05/31 10:10:49;;;;;;;8.07;3.08;;;;;;;26.52;46.99;102100.00;6134138;23;20022;-85
2023/05/31 10:13:18;;;;;;;10.07;3.00;;;;;;;26.68;45.88;102101.75;6111822;23;20022;-85
2023/05/31 10:15:48;;;;;;;7.10;2.83;;;;;;;26.13;44.64;102103.16;6137077;23;20009;-85
2023/05/31 10:18:16;;;;;;;6.88;2.10;;;;;;;26.29;45.35;102088.06;6162931;23;20005;-85
2023/05/31 10:20:48;;;;;;;4.80;1.75;;;;;;;26.53;42.46;102103.69;6110136;23;20105;-85
2023/05/31 10:23:20;;;;;;;5.35;1.95;;;;;;;26.68;43.10;102100.88;6135350;23;20049;-85
2023/05/31 10:26:09;;;;;;;7.05;2.08;;;;;;;26.54;43.50;102097.88;6111563;23;20043;-85
2023/05/31 10:28:44;;;;;;;7.55;2.65;;;;;;;27.13;39.77;102107.22;6136233;23;20005;-84
2023/05/31 10:31:11;;;;;;;7.53;2.53;;;;;;;27.09;42.83;102092.69;6111873;23;20009;-84
2023/05/31 10:33:40;;;;;;;11.20;3.05;;;;;;;26.21;44.07;102084.28;6136234;23;20009;-84
2023/05/31 10:36:05;;;;;;;8.32;2.58;;;;;;;26.02;44.72;102085.75;6112545;23;20096;-83
2023/05/31 10:38:48;;;;;;;4.32;1.50;;;;;;;25.97;43.59;102070.53;6138865;23;20017;-83
2023/05/31 10:41:20;;;;;;;3.67;1.63;;;;;;;26.04;42.93;102066.78;6137938;23;20029;-84
2023/05/31 10:43:59;;;;;;;7.25;2.05;;;;;;;26.00;42.26;102064.56;6163730;23;20013;-84
2023/05/31 10:46:27;;;;;;;5.55;1.90;;;;;;;26.06;42.77;102077.81;6113614;23;20056;-84
2023/05/31 10:48:57;;;;;;;9.50;2.35;;;;;;;26.24;41.55;102071.78;6114419;23;20005;-85
2023/05/31 10:51:46;;;;;;;8.05;2.22;;;;;;;26.05;45.08;102064.84;6090234;23;20014;-84
2023/05/31 10:54:20;;;;;;;6.30;2.55;;;;;;;26.70;44.23;102062.22;6163072;23;20005;-83
2023/05/31 10:57:11;;;;;;;8.18;2.53;;;;;;;26.54;43.74;102064.16;6113594;23;20342;-84
2023/05/31 10:59:42;;;;;;;6.25;2.13;;;;;;;26.66;43.13;102058.94;6083044;23;20460;-83
2023/05/31 11:02:09;;;;;;;6.47;1.98;;;;;;;26.70;43.17;102054.66;6162939;23;20378;-83
2023/05/31 11:04:35;;;;;;;11.57;2.58;;;;;;;26.38;43.91;102048.44;6112048;23;20341;-84
2023/05/31 11:07:22;;;;;;;3.38;2.00;;;;;;;26.05;43.75;102042.38;6136405;23;20048;-83
2023/05/31 11:09:59;;;;;;;5.97;2.25;;;;;;;26.37;43.25;102037.41;6136057;23;20018;-83
2023/05/31 11:12:40;;;;;;;5.93;2.47;;;;;;;26.47;43.39;102051.13;6162578;23;20020;-83
2023/05/31 11:15:13;;;;;;;6.65;2.83;;;;;;;26.40;42.82;102048.25;6110800;23;20044;-83
2023/05/31 11:17:59;;;;;;;7.07;2.00;;;;;;;26.21;44.23;102042.16;6134916;23;20012;-84
2023/05/31 11:20:26;;;;;;;8.93;2.30;;;;;;;26.35;44.12;102045.13;6109069;23;20017;-84
2023/05/31 11:23:16;;;;;;;7.00;2.20;;;;;;;26.62;44.05;102049.13;6111806;23;20013;-84
2023/05/31 11:25:43;;;;;;;7.97;2.42;;;;;;;26.77;43.13;102046.28;6163734;23;20009;-84
2023/05/31 11:28:10;;;;;;;7.38;2.63;;;;;;;26.16;44.72;102041.00;6138940;23;20013;-84
2023/05/31 11:30:40;;;;;;;10.98;2.22;;;;;;;26.16;45.46;102035.41;6113990;23;20023;-84
2023/05/31 11:33:15;;;;;;;4.63;2.00;;;;;;;26.38;44.59;102037.19;6113313;23;20020;-84
2023/05/31 11:35:41;;;;;;;8.02;1.90;;;;;;;26.52;43.69;102037.34;6088815;23;20014;-84
2023/05/31 11:38:06;;;;;;;7.20;2.22;;;;;;;26.33;43.79;102042.50;6114827;23;20434;-84